Time;durP1;ratioP1;P1;durP2;ratioP2;P2;SDS_P1;SDS_P2;PMS_P1;PMS_P2;Temp;Humidity;BMP_temperature;BMP_pressure;BME280_temperature;BME280_humidity;BME280_pressure;Samples;Min_cycle;Max_cycle;Signal;HPM_P1;HPM_P2
2024/01/09 00:01:07;;;;;;;;;22.25;21.75;;;;;;;;5076173;28;45351;-79
2024/01/09 00:03:32;;;;;;;;;16.75;16.75;;;;;;;;5082281;28;45321;-79
2024/01/09 00:05:57;;;;;;;;;24.25;21.25;;;;;;;;5081266;28;45993;-79
2024/01/09 00:08:22;;;;;;;;;26.00;21.75;;;;;;;;5064144;28;45582;-78
2024/01/09 00:10:47;;;;;;;;;16.75;16.50;;;;;;;;5081824;28;45288;-79
2024/01/09 00:13:13;;;;;;;;;21.75;18.50;;;;;;;;5062788;28;47060;-79
2024/01/09 00:15:38;;;;;;;;;15.25;11.00;;;;;;;;5081577;28;46374;-78
2024/01/09 00:18:03;;;;;;;;;19.75;18.75;;;;;;;;5081406;28;45651;-79
2024/01/09 00:20:28;;;;;;;;;7.00;6.50;;;;;;;;5080937;28;45291;-79
2024/01/09 00:22:53;;;;;;;;;18.50;16.75;;;;;;;;5080753;28;45314;-79
2024/01/09 00:25:19;;;;;;;;;17.75;17.25;;;;;;;;5081150;28;45392;-79
2024/01/09 00:27:45;;;;;;;;;24.00;20.25;;;;;;;;5080719;28;45336;-79
2024/01/09 00:30:10;;;;;;;;;17.00;17.00;;;;;;;;5080885;28;45363;-80
2024/01/09 00:32:36;;;;;;;;;19.00;18.25;;;;;;;;5079791;28;45476;-79
2024/01/09 00:35:01;;;;;;;;;21.00;18.25;;;;;;;;5061513;28;46139;-79
2024/01/09 00:37:26;;;;;;;;;19.25;18.25;;;;;;;;5080173;28;45271;-80
2024/01/09 00:39:52;;;;;;;;;20.50;18.25;;;;;;;;5080356;28;45208;-80
2024/01/09 00:42:17;;;;;;;;;15.50;15.50;;;;;;;;5080185;28;45510;-79
2024/01/09 00:44:42;;;;;;;;;20.25;15.50;;;;;;;;5079978;28;45298;-79
2024/01/09 00:47:07;;;;;;;;;14.75;14.00;;;;;;;;5079999;28;45329;-79
2024/01/09 00:49:32;;;;;;;;;18.00;15.00;;;;;;;;5080035;28;45276;-80
2024/01/09 00:51:58;;;;;;;;;17.25;14.50;;;;;;;;5079712;28;45533;-79
2024/01/09 00:54:23;;;;;;;;;19.00;14.50;;;;;;;;5079962;28;45442;-79
2024/01/09 00:56:48;;;;;;;;;17.00;14.00;;;;;;;;5083192;27;45333;-78
2024/01/09 00:59:13;;;;;;;;;17.75;17.00;;;;;;;;5100380;27;45394;-80
2024/01/09 01:01:38;;;;;;;;;14.75;14.75;;;;;;;;5100361;27;45401;-79
2024/01/09 01:04:04;;;;;;;;;17.75;14.00;;;;;;;;5100013;27;46388;-79
2024/01/09 01:06:29;;;;;;;;;16.50;15.00;;;;;;;;5100365;27;45324;-78
2024/01/09 01:08:54;;;;;;;;;14.25;14.25;;;;;;;;5100413;27;45333;-79
2024/01/09 01:11:19;;;;;;;;;15.75;14.00;;;;;;;;5100136;27;45295;-79
2024/01/09 01:13:44;;;;;;;;;18.75;14.50;;;;;;;;5100107;27;46348;-79
2024/01/09 01:16:10;;;;;;;;;18.50;18.50;;;;;;;;5100221;27;45449;-79
2024/01/09 01:18:35;;;;;;;;;12.50;10.75;;;;;;;;5081646;27;45299;-79
2024/01/09 01:21:00;;;;;;;;;11.25;11.25;;;;;;;;5100433;27;45247;-79
2024/01/09 01:23:25;;;;;;;;;15.25;13.50;;;;;;;;5099991;27;45428;-79
2024/01/09 01:25:50;;;;;;;;;13.00;12.25;;;;;;;;5100183;27;45270;-79
2024/01/09 01:28:16;;;;;;;;;20.50;17.50;;;;;;;;5099589;27;45271;-79
2024/01/09 01:30:41;;;;;;;;;19.00;17.00;;;;;;;;5099910;27;45487;-79
2024/01/09 01:33:06;;;;;;;;;12.75;11.75;;;;;;;;5099951;27;46090;-79
2024/01/09 01:35:31;;;;;;;;;13.50;13.50;;;;;;;;5099598;27;45263;-78
2024/01/09 01:37:56;;;;;;;;;14.75;14.50;;;;;;;;5100032;27;45366;-78
2024/01/09 01:40:21;;;;;;;;;17.75;14.00;;;;;;;;5099604;27;45483;-78
2024/01/09 01:42:47;;;;;;;;;14.00;13.75;;;;;;;;5084913;27;45595;-78
2024/01/09 01:45:13;;;;;;;;;13.25;13.25;;;;;;;;5062238;28;45311;-78
2024/01/09 01:47:39;;;;;;;;;18.00;15.50;;;;;;;;5082791;28;45268;-78
2024/01/09 01:50:05;;;;;;;;;14.25;13.50;;;;;;;;5064194;28;46674;-79
2024/01/09 01:52:30;;;;;;;;;15.25;13.75;;;;;;;;5082355;28;45677;-78
2024/01/09 01:54:55;;;;;;;;;13.25;12.50;;;;;;;;5082766;28;45253;-78
2024/01/09 01:57:20;;;;;;;;;10.75;10.75;;;;;;;;5072270;27;45386;-78
2024/01/09 01:59:46;;;;;;;;;10.25;10.25;;;;;;;;5102669;27;45536;-78
2024/01/09 02:02:13;;;;;;;;;13.50;13.50;;;;;;;;5078282;28;46307;-78
2024/01/09 02:04:40;;;;;;;;;13.50;13.50;;;;;;;;5082478;28;45462;-78
2024/01/09 02:07:06;;;;;;;;;14.25;13.00;;;;;;;;5082155;28;45312;-79
2024/01/09 02:09:31;;;;;;;;;14.50;12.25;;;;;;;;5063994;28;46095;-78
2024/01/09 02:11:57;;;;;;;;;13.00;11.75;;;;;;;;5063921;28;47530;-78
2024/01/09 02:14:22;;;;;;;;;16.25;13.75;;;;;;;;5082359;28;45340;-78
2024/01/09 02:16:47;;;;;;;;;15.00;12.50;;;;;;;;5082537;28;45237;-78
2024/01/09 02:19:12;;;;;;;;;12.00;11.00;;;;;;;;5082313;28;45304;-79
2024/01/09 02:21:38;;;;;;;;;17.75;14.75;;;;;;;;5082175;28;45410;-78
2024/01/09 02:24:03;;;;;;;;;10.00;10.00;;;;;;;;5063962;28;46055;-79
2024/01/09 02:26:34;;;;;;;;;15.25;13.75;;;;;;;;5082442;28;45728;-79
2024/01/09 02:29:03;;;;;;;;;12.75;10.00;;;;;;;;5081931;28;45224;-79
2024/01/09 02:31:29;;;;;;;;;13.00;12.75;;;;;;;;5081895;28;46397;-78
2024/01/09 02:33:54;;;;;;;;;14.00;12.50;;;;;;;;5082003;28;45295;-79
2024/01/09 02:36:19;;;;;;;;;13.50;10.75;;;;;;;;5082026;28;45521;-79
2024/01/09 02:38:45;;;;;;;;;15.75;13.25;;;;;;;;5082024;28;45291;-78
2024/01/09 02:41:10;;;;;;;;;10.50;10.50;;;;;;;;5081893;28;45244;-78
2024/01/09 02:43:35;;;;;;;;;15.50;13.75;;;;;;;;5081809;28;45202;-79
2024/01/09 02:46:00;;;;;;;;;12.50;12.50;;;;;;;;5082030;28;45477;-79
2024/01/09 02:48:25;;;;;;;;;14.25;11.75;;;;;;;;5081684;28;45403;-79
2024/01/09 02:50:50;;;;;;;;;10.25;8.00;;;;;;;;5081505;28;45283;-78
2024/01/09 02:53:16;;;;;;;;;16.50;13.00;;;;;;;;5081768;28;45351;-79
2024/01/09 02:55:41;;;;;;;;;17.50;11.00;;;;;;;;5081603;28;45280;-79
2024/01/09 02:58:06;;;;;;;;;11.00;11.00;;;;;;;;5095644;27;45430;-79
2024/01/09 03:00:31;;;;;;;;;16.25;15.00;;;;;;;;5102087;27;45280;-78
2024/01/09 03:02:56;;;;;;;;;10.00;9.75;;;;;;;;5102245;27;45277;-79
2024/01/09 03:05:22;;;;;;;;;14.50;12.00;;;;;;;;5102064;27;45632;-78
2024/01/09 03:07:47;;;;;;;;;15.00;13.00;;;;;;;;5101965;27;45521;-79
2024/01/09 03:10:13;;;;;;;;;15.25;13.25;;;;;;;;5102024;27;45396;-78
2024/01/09 03:12:38;;;;;;;;;13.50;13.50;;;;;;;;5101726;27;45210;-78
2024/01/09 03:15:03;;;;;;;;;14.75;12.00;;;;;;;;5102091;27;45121;-78
2024/01/09 03:17:28;;;;;;;;;13.25;12.25;;;;;;;;5083321;27;45538;-78
2024/01/09 03:19:54;;;;;;;;;14.50;14.00;;;;;;;;5101488;27;46240;-78
2024/01/09 03:22:19;;;;;;;;;13.75;10.00;;;;;;;;5101852;27;45973;-79
2024/01/09 03:24:44;;;;;;;;;15.25;11.50;;;;;;;;5101819;27;45276;-78
2024/01/09 03:27:09;;;;;;;;;9.00;9.00;;;;;;;;5101759;27;45275;-79
2024/01/09 03:29:34;;;;;;;;;14.25;14.00;;;;;;;;5101348;27;46163;-79
2024/01/09 03:32:00;;;;;;;;;14.25;13.75;;;;;;;;5101691;27;45330;-79
2024/01/09 03:34:25;;;;;;;;;16.75;13.25;;;;;;;;5101668;27;45568;-78
2024/01/09 03:36:50;;;;;;;;;13.25;12.75;;;;;;;;5101349;27;45417;-79
2024/01/09 03:39:15;;;;;;;;;13.25;10.00;;;;;;;;5101424;27;46085;-79
2024/01/09 03:41:42;;;;;;;;;11.50;10.00;;;;;;;;5089700;27;45197;-78
2024/01/09 03:44:07;;;;;;;;;13.50;13.50;;;;;;;;5080881;28;45338;-78
2024/01/09 03:46:32;;;;;;;;;12.00;10.25;;;;;;;;5080814;28;45311;-78
2024/01/09 03:48:58;;;;;;;;;13.75;12.75;;;;;;;;5080618;28;45343;-78
2024/01/09 03:51:23;;;;;;;;;14.25;13.00;;;;;;;;5080523;28;45375;-78
2024/01/09 03:53:48;;;;;;;;;13.50;13.50;;;;;;;;5062599;28;45302;-79
2024/01/09 03:56:14;;;;;;;;;12.00;10.25;;;;;;;;5062289;28;45368;-79
2024/01/09 03:58:39;;;;;;;;;20.00;16.25;;;;;;;;5099192;27;45476;-78
2024/01/09 04:01:04;;;;;;;;;14.75;11.75;;;;;;;;5101230;27;45468;-78
2024/01/09 04:03:29;;;;;;;;;14.00;13.25;;;;;;;;5082682;27;45362;-78
2024/01/09 04:05:54;;;;;;;;;15.67;11.33;;;;;;;;5101125;27;45476;-78
2024/01/09 04:08:20;;;;;;;;;14.75;11.75;;;;;;;;5081458;27;46836;-77
2024/01/09 04:10:45;;;;;;;;;15.00;14.25;;;;;;;;5082613;27;45326;-79
2024/01/09 04:13:10;;;;;;;;;12.50;10.50;;;;;;;;5082455;27;45323;-78
2024/01/09 04:15:35;;;;;;;;;18.50;13.00;;;;;;;;5082573;27;46066;-78
2024/01/09 04:18:01;;;;;;;;;11.00;11.00;;;;;;;;5082372;27;46961;-79
2024/01/09 04:20:26;;;;;;;;;15.00;10.75;;;;;;;;5082028;27;45379;-79
2024/01/09 04:22:51;;;;;;;;;10.00;9.75;;;;;;;;5101056;27;45251;-78
2024/01/09 04:25:16;;;;;;;;;13.25;9.25;;;;;;;;5082367;27;45670;-78
2024/01/09 04:27:42;;;;;;;;;14.75;14.00;;;;;;;;5082047;27;47067;-79
2024/01/09 04:30:07;;;;;;;;;13.75;13.75;;;;;;;;5100745;27;45342;-78
2024/01/09 04:32:32;;;;;;;;;14.75;14.00;;;;;;;;5082329;27;45378;-78
2024/01/09 04:34:58;;;;;;;;;20.25;17.00;;;;;;;;5082147;27;47162;-79
2024/01/09 04:37:23;;;;;;;;;15.25;13.75;;;;;;;;5081808;27;46717;-78
2024/01/09 04:39:48;;;;;;;;;24.25;22.00;;;;;;;;5082263;27;45297;-78
2024/01/09 04:42:13;;;;;;;;;36.25;34.00;;;;;;;;5100739;27;45148;-78
2024/01/09 04:44:39;;;;;;;;;52.75;41.75;;;;;;;;5100166;27;45218;-79
2024/01/09 04:47:04;;;;;;;;;65.00;50.25;;;;;;;;5081953;27;48261;-78
2024/01/09 04:49:29;;;;;;;;;52.25;42.00;;;;;;;;5081679;27;45181;-78
2024/01/09 04:51:54;;;;;;;;;70.00;57.25;;;;;;;;5100426;27;45337;-79
2024/01/09 04:54:19;;;;;;;;;35.00;31.25;;;;;;;;5100252;27;45516;-79
2024/01/09 04:56:45;;;;;;;;;47.25;41.50;;;;;;;;5097233;27;45284;-78
2024/01/09 04:59:10;;;;;;;;;73.00;59.50;;;;;;;;5079662;28;45272;-78
2024/01/09 05:01:35;;;;;;;;;64.00;52.75;;;;;;;;5079951;28;45182;-78
2024/01/09 05:04:01;;;;;;;;;30.50;28.25;;;;;;;;5079295;28;45291;-79
2024/01/09 05:06:26;;;;;;;;;17.00;13.75;;;;;;;;5079856;28;46260;-79
2024/01/09 05:08:51;;;;;;;;;17.00;14.50;;;;;;;;5079640;28;45265;-79
2024/01/09 05:11:17;;;;;;;;;20.50;14.75;;;;;;;;5079684;28;45220;-79
2024/01/09 05:13:42;;;;;;;;;17.00;13.25;;;;;;;;5079411;28;45483;-78
2024/01/09 05:16:07;;;;;;;;;18.00;16.75;;;;;;;;5079534;28;45244;-78
2024/01/09 05:18:32;;;;;;;;;20.00;18.25;;;;;;;;5079738;28;45296;-78
2024/01/09 05:20:57;;;;;;;;;23.25;20.75;;;;;;;;5083228;28;45255;-79
2024/01/09 05:23:23;;;;;;;;;23.75;21.25;;;;;;;;5064877;28;45863;-79
2024/01/09 05:25:48;;;;;;;;;15.50;14.25;;;;;;;;5077995;28;46186;-79
2024/01/09 05:28:13;;;;;;;;;20.00;17.50;;;;;;;;5072382;28;45280;-80
2024/01/09 05:30:39;;;;;;;;;18.50;16.50;;;;;;;;5071041;28;45284;-79
2024/01/09 05:33:05;;;;;;;;;14.00;13.75;;;;;;;;5082929;28;45388;-79
2024/01/09 05:35:30;;;;;;;;;17.50;16.50;;;;;;;;5082778;28;46268;-78
2024/01/09 05:37:56;;;;;;;;;32.00;29.75;;;;;;;;5082637;28;45363;-79
2024/01/09 05:40:21;;;;;;;;;23.00;18.00;;;;;;;;5064610;28;45710;-79
2024/01/09 05:42:46;;;;;;;;;30.00;22.75;;;;;;;;5082462;28;45516;-79
2024/01/09 05:45:12;;;;;;;;;19.25;18.50;;;;;;;;5081579;28;45690;-78
2024/01/09 05:47:37;;;;;;;;;13.00;13.00;;;;;;;;5082880;28;45404;-79
2024/01/09 05:50:02;;;;;;;;;18.00;16.50;;;;;;;;5082812;28;45225;-80
2024/01/09 05:52:27;;;;;;;;;27.50;27.25;;;;;;;;5064147;28;47287;-79
2024/01/09 05:54:53;;;;;;;;;31.75;28.25;;;;;;;;5082718;28;45388;-81
2024/01/09 05:57:18;;;;;;;;;24.75;20.75;;;;;;;;5090094;27;45320;-83
2024/01/09 05:59:43;;;;;;;;;32.50;29.00;;;;;;;;5102981;27;45139;-83
2024/01/09 06:02:08;;;;;;;;;33.25;28.25;;;;;;;;5084551;27;46450;-81
2024/01/09 06:04:33;;;;;;;;;42.25;37.50;;;;;;;;5083715;27;47324;-84
2024/01/09 06:06:59;;;;;;;;;39.25;31.00;;;;;;;;5105018;27;45298;-83
2024/01/09 06:09:24;;;;;;;;;22.25;22.00;;;;;;;;5084428;27;45425;-84
2024/01/09 06:11:49;;;;;;;;;20.75;17.50;;;;;;;;5084874;27;45235;-83
2024/01/09 06:14:14;;;;;;;;;25.75;23.25;;;;;;;;5049543;28;47828;-82
2024/01/09 06:16:40;;;;;;;;;51.25;44.25;;;;;;;;5064185;28;45320;-81
2024/01/09 06:19:05;;;;;;;;;44.00;37.25;;;;;;;;5081232;28;45322;-80
2024/01/09 06:21:30;;;;;;;;;53.75;43.50;;;;;;;;5082198;28;45327;-76
2024/01/09 06:23:58;;;;;;;;;25.50;24.25;;;;;;;;5082851;28;45379;-76
2024/01/09 06:26:23;;;;;;;;;23.00;21.50;;;;;;;;5081813;28;45403;-76
2024/01/09 06:28:49;;;;;;;;;25.50;20.75;;;;;;;;5080604;28;45355;-76
2024/01/09 06:31:14;;;;;;;;;27.00;23.50;;;;;;;;5079134;28;45691;-75
2024/01/09 06:33:39;;;;;;;;;20.00;19.00;;;;;;;;5079892;28;45503;-76
2024/01/09 06:36:05;;;;;;;;;22.00;19.00;;;;;;;;5080189;28;45481;-76
2024/01/09 06:38:30;;;;;;;;;16.25;14.00;;;;;;;;5080348;28;45488;-78
2024/01/09 06:40:55;;;;;;;;;22.00;21.25;;;;;;;;5080876;28;45362;-75
2024/01/09 06:43:20;;;;;;;;;23.25;20.25;;;;;;;;5080576;28;45518;-75
2024/01/09 06:45:45;;;;;;;;;23.00;22.25;;;;;;;;5081354;28;45521;-75
2024/01/09 06:48:11;;;;;;;;;32.00;29.75;;;;;;;;5063276;28;45277;-75
2024/01/09 06:50:36;;;;;;;;;23.25;21.50;;;;;;;;5081471;28;45235;-76
2024/01/09 06:53:01;;;;;;;;;28.75;25.75;;;;;;;;5081180;28;45316;-76
2024/01/09 06:55:27;;;;;;;;;27.75;21.75;;;;;;;;5063135;28;45363;-76
2024/01/09 06:57:52;;;;;;;;;24.50;20.50;;;;;;;;5093710;27;45311;-77
2024/01/09 07:00:18;;;;;;;;;19.50;19.50;;;;;;;;5083507;27;47137;-76
2024/01/09 07:02:44;;;;;;;;;27.00;25.50;;;;;;;;5083372;27;47156;-75
2024/01/09 07:05:09;;;;;;;;;27.25;22.00;;;;;;;;5101771;27;45666;-76
2024/01/09 07:07:35;;;;;;;;;35.75;31.25;;;;;;;;5101992;27;45407;-76
2024/01/09 07:10:00;;;;;;;;;26.25;23.00;;;;;;;;5062981;27;45241;-75
2024/01/09 07:12:25;;;;;;;;;23.25;21.75;;;;;;;;5060614;28;45304;-75
2024/01/09 07:14:50;;;;;;;;;27.75;22.75;;;;;;;;5059828;28;45296;-76
2024/01/09 07:17:16;;;;;;;;;30.50;26.75;;;;;;;;5060905;28;45461;-76
2024/01/09 07:19:41;;;;;;;;;29.75;27.75;;;;;;;;5060417;28;45501;-76
2024/01/09 07:22:06;;;;;;;;;32.25;29.25;;;;;;;;5060772;28;45284;-75
2024/01/09 07:24:31;;;;;;;;;46.00;40.75;;;;;;;;5060730;28;45151;-74
2024/01/09 07:26:56;;;;;;;;;49.50;42.25;;;;;;;;5042673;28;45313;-74
2024/01/09 07:29:22;;;;;;;;;38.50;36.50;;;;;;;;5060531;28;45249;-75
2024/01/09 07:31:47;;;;;;;;;34.00;31.25;;;;;;;;5060751;28;46764;-75
2024/01/09 07:34:12;;;;;;;;;28.25;26.00;;;;;;;;5060619;28;45324;-75
2024/01/09 07:36:38;;;;;;;;;25.00;23.75;;;;;;;;5060620;28;45295;-75
2024/01/09 07:39:05;;;;;;;;;26.00;22.25;;;;;;;;5060627;28;45325;-75
2024/01/09 07:41:30;;;;;;;;;24.75;21.50;;;;;;;;5059984;28;45995;-77
2024/01/09 07:43:56;;;;;;;;;32.25;30.25;;;;;;;;5058971;28;45414;-76
2024/01/09 07:46:21;;;;;;;;;24.00;21.00;;;;;;;;5060646;28;45326;-75
2024/01/09 07:48:46;;;;;;;;;29.50;26.00;;;;;;;;5060382;28;45554;-77
2024/01/09 07:51:11;;;;;;;;;48.00;40.50;;;;;;;;5060208;28;45398;-75
2024/01/09 07:53:36;;;;;;;;;23.50;20.75;;;;;;;;5060477;28;45443;-75
2024/01/09 07:56:02;;;;;;;;;30.25;23.75;;;;;;;;5060353;28;45594;-75
2024/01/09 07:58:27;;;;;;;;;31.25;29.25;;;;;;;;5093974;27;45270;-76
2024/01/09 08:00:53;;;;;;;;;27.00;22.75;;;;;;;;5065315;28;46414;-76
2024/01/09 08:03:18;;;;;;;;;53.50;43.25;;;;;;;;5075292;28;45351;-75
2024/01/09 08:05:43;;;;;;;;;48.50;42.25;;;;;;;;5079426;28;45308;-76
2024/01/09 08:08:12;;;;;;;;;52.50;42.50;;;;;;;;5072438;28;45287;-76
2024/01/09 08:10:37;;;;;;;;;46.50;39.50;;;;;;;;5072272;28;46073;-76
2024/01/09 08:13:02;;;;;;;;;31.50;27.00;;;;;;;;5079707;28;45302;-77
2024/01/09 08:15:27;;;;;;;;;39.75;38.00;;;;;;;;5080099;28;45330;-76
2024/01/09 08:17:53;;;;;;;;;33.50;32.75;;;;;;;;5073624;28;45288;-75
2024/01/09 08:20:18;;;;;;;;;41.50;39.75;;;;;;;;5060490;28;46549;-77
2024/01/09 08:22:43;;;;;;;;;32.00;27.25;;;;;;;;5079740;28;45327;-77
2024/01/09 08:25:09;;;;;;;;;47.25;41.25;;;;;;;;5078259;28;45358;-78
2024/01/09 08:27:34;;;;;;;;;46.00;41.50;;;;;;;;5044774;28;45376;-77
2024/01/09 08:30:00;;;;;;;;;28.75;27.00;;;;;;;;5048051;28;47530;-75
2024/01/09 08:32:25;;;;;;;;;37.25;34.25;;;;;;;;5074505;28;45417;-75
2024/01/09 08:34:50;;;;;;;;;60.50;46.75;;;;;;;;5078138;28;45316;-75
2024/01/09 08:37:15;;;;;;;;;49.00;43.00;;;;;;;;5075545;28;45300;-76
2024/01/09 08:39:40;;;;;;;;;46.50;40.00;;;;;;;;5072070;28;45457;-76
2024/01/09 08:42:06;;;;;;;;;32.00;25.25;;;;;;;;5064117;28;45455;-76
2024/01/09 08:44:31;;;;;;;;;30.25;24.50;;;;;;;;5079659;28;45446;-76
2024/01/09 08:46:56;;;;;;;;;59.75;50.25;;;;;;;;5079957;28;45529;-76
2024/01/09 08:49:21;;;;;;;;;43.00;36.25;;;;;;;;5078875;28;45354;-77
2024/01/09 08:51:46;;;;;;;;;28.25;25.50;;;;;;;;5078525;28;45418;-77
2024/01/09 08:54:12;;;;;;;;;30.50;28.50;;;;;;;;5074733;28;45345;-76
2024/01/09 08:56:37;;;;;;;;;34.75;30.50;;;;;;;;5062547;27;45461;-77
2024/01/09 08:59:02;;;;;;;;;33.25;33.00;;;;;;;;5099134;27;46329;-77
2024/01/09 09:01:28;;;;;;;;;32.50;29.25;;;;;;;;5063655;27;45358;-78
2024/01/09 09:03:54;;;;;;;;;62.25;50.75;;;;;;;;5060202;28;45556;-77
2024/01/09 09:06:19;;;;;;;;;25.75;22.75;;;;;;;;5058931;28;45488;-77
2024/01/09 09:08:44;;;;;;;;;29.50;26.50;;;;;;;;5041984;28;47004;-77
2024/01/09 09:11:14;;;;;;;;;21.75;16.75;;;;;;;;5067032;28;45391;-76
2024/01/09 09:13:39;;;;;;;;;28.00;25.25;;;;;;;;5060415;28;45636;-76
2024/01/09 09:16:05;;;;;;;;;24.25;22.25;;;;;;;;5060603;28;45815;-77
2024/01/09 09:18:30;;;;;;;;;29.75;24.75;;;;;;;;5041484;28;47191;-77
2024/01/09 09:20:55;;;;;;;;;37.25;36.50;;;;;;;;5059247;28;45305;-78
2024/01/09 09:23:20;;;;;;;;;32.25;26.00;;;;;;;;5058598;28;45312;-76
2024/01/09 09:25:46;;;;;;;;;29.50;29.25;;;;;;;;5076180;28;45361;-77
2024/01/09 09:28:11;;;;;;;;;25.75;22.75;;;;;;;;5060746;28;46073;-76
2024/01/09 09:30:36;;;;;;;;;28.75;28.00;;;;;;;;5077999;28;45308;-77
2024/01/09 09:33:01;;;;;;;;;30.25;28.25;;;;;;;;5065616;28;45367;-77
2024/01/09 09:35:28;;;;;;;;;25.25;21.50;;;;;;;;5059736;28;45368;-78
2024/01/09 09:37:53;;;;;;;;;29.00;23.00;;;;;;;;5059573;28;45379;-77
2024/01/09 09:40:18;;;;;;;;;29.50;28.75;;;;;;;;5058824;28;45336;-76
2024/01/09 09:42:49;;;;;;;;;29.50;24.75;;;;;;;;5060139;28;45301;-77
2024/01/09 09:45:17;;;;;;;;;28.25;24.75;;;;;;;;5059041;28;45389;-76
2024/01/09 09:47:44;;;;;;;;;19.25;18.50;;;;;;;;5058820;28;45371;-77
2024/01/09 09:50:10;;;;;;;;;30.00;26.50;;;;;;;;5058959;28;45390;-76
2024/01/09 09:52:40;;;;;;;;;34.00;26.00;;;;;;;;5076753;28;45283;-76
2024/01/09 09:55:05;;;;;;;;;37.50;32.75;;;;;;;;5079687;28;45298;-76
2024/01/09 09:57:30;;;;;;;;;33.00;27.25;;;;;;;;5088054;27;46332;-76
2024/01/09 09:59:55;;;;;;;;;23.25;23.25;;;;;;;;5090501;27;45393;-78
2024/01/09 10:02:24;;;;;;;;;27.75;23.00;;;;;;;;5080115;28;45341;-76
2024/01/09 10:04:51;;;;;;;;;24.25;24.25;;;;;;;;5078700;28;45371;-76
2024/01/09 10:07:19;;;;;;;;;23.00;22.50;;;;;;;;5080438;28;45322;-77
2024/01/09 10:09:48;;;;;;;;;24.25;23.75;;;;;;;;5082275;28;45331;-76
2024/01/09 10:12:14;;;;;;;;;48.75;41.50;;;;;;;;5074848;28;45278;-76
2024/01/09 10:14:59;;;;;;;;;43.50;35.50;;;;;;;;5070052;27;45476;-76
2024/01/09 10:17:25;;;;;;;;;30.50;23.75;;;;;;;;5070841;28;46239;-77
2024/01/09 10:19:50;;;;;;;;;36.75;26.00;;;;;;;;5070519;28;45520;-77
2024/01/09 10:22:15;;;;;;;;;29.00;27.25;;;;;;;;5073373;28;45566;-77
2024/01/09 10:24:40;;;;;;;;;31.75;28.25;;;;;;;;5073291;28;45568;-76
2024/01/09 10:27:08;;;;;;;;;21.75;18.75;;;;;;;;5070925;28;45379;-77
2024/01/09 10:29:33;;;;;;;;;28.00;27.25;;;;;;;;5059861;28;45405;-76
2024/01/09 10:31:58;;;;;;;;;29.50;25.50;;;;;;;;5081810;28;45601;-77
2024/01/09 10:34:26;;;;;;;;;26.25;24.00;;;;;;;;5059050;28;46558;-76
2024/01/09 10:36:53;;;;;;;;;27.75;22.25;;;;;;;;5081445;28;45473;-76
2024/01/09 10:39:18;;;;;;;;;26.25;24.25;;;;;;;;5081150;28;45421;-75
2024/01/09 10:41:43;;;;;;;;;21.75;21.75;;;;;;;;5080399;28;45308;-76
2024/01/09 10:44:13;;;;;;;;;27.00;23.25;;;;;;;;5080538;28;45257;-76
2024/01/09 10:46:39;;;;;;;;;35.25;28.00;;;;;;;;5063001;28;48250;-76
2024/01/09 10:49:05;;;;;;;;;29.25;25.75;;;;;;;;5070443;28;45347;-77
2024/01/09 10:51:31;;;;;;;;;42.25;35.25;;;;;;;;5063919;28;45347;-77
2024/01/09 10:53:57;;;;;;;;;51.25;45.75;;;;;;;;5069792;28;45510;-77
2024/01/09 10:56:22;;;;;;;;;38.00;31.50;;;;;;;;5060985;28;46224;-76
2024/01/09 10:58:49;;;;;;;;;26.75;25.00;;;;;;;;5095835;27;45323;-76
2024/01/09 11:01:14;;;;;;;;;46.75;40.00;;;;;;;;5080354;28;45347;-77
2024/01/09 11:03:40;;;;;;;;;25.25;25.00;;;;;;;;5081350;28;45321;-77
2024/01/09 11:06:07;;;;;;;;;38.50;36.00;;;;;;;;5081302;28;45457;-77
2024/01/09 11:08:34;;;;;;;;;43.25;37.50;;;;;;;;5081970;28;45362;-77
2024/01/09 11:11:01;;;;;;;;;38.25;34.25;;;;;;;;5081851;28;45263;-76
2024/01/09 11:13:27;;;;;;;;;32.25;29.50;;;;;;;;5081988;28;45491;-77
2024/01/09 11:15:54;;;;;;;;;27.75;24.75;;;;;;;;5082399;28;46285;-76
2024/01/09 11:18:22;;;;;;;;;26.25;24.25;;;;;;;;5062947;28;45256;-76
2024/01/09 11:20:47;;;;;;;;;31.00;31.00;;;;;;;;5082469;28;45217;-76
2024/01/09 11:23:12;;;;;;;;;29.75;27.75;;;;;;;;5083308;28;45269;-77
2024/01/09 11:25:37;;;;;;;;;37.75;33.25;;;;;;;;5081340;28;45343;-76
2024/01/09 11:28:03;;;;;;;;;24.50;23.25;;;;;;;;5081352;28;45344;-77
2024/01/09 11:30:31;;;;;;;;;21.25;21.25;;;;;;;;5063245;28;45516;-77
2024/01/09 11:32:56;;;;;;;;;23.75;23.50;;;;;;;;5081815;28;45524;-76
2024/01/09 11:35:22;;;;;;;;;26.75;23.00;;;;;;;;5083166;28;46274;-77
2024/01/09 11:37:48;;;;;;;;;26.00;22.50;;;;;;;;5082627;28;44688;-76
2024/01/09 11:40:14;;;;;;;;;39.75;35.00;;;;;;;;5081957;28;45195;-76
2024/01/09 11:42:43;;;;;;;;;27.50;27.50;;;;;;;;5081226;28;45143;-77
2024/01/09 11:45:09;;;;;;;;;29.00;24.75;;;;;;;;5082568;28;45427;-77
2024/01/09 11:47:42;;;;;;;;;28.25;25.75;;;;;;;;5081108;28;45349;-76
2024/01/09 11:50:08;;;;;;;;;28.75;27.50;;;;;;;;5085303;28;45378;-74
2024/01/09 11:52:35;;;;;;;;;31.50;29.00;;;;;;;;5060423;28;45473;-76
2024/01/09 11:55:01;;;;;;;;;24.00;24.00;;;;;;;;5075871;28;45927;-77
2024/01/09 11:57:26;;;;;;;;;26.75;23.25;;;;;;;;5069799;27;45292;-77
2024/01/09 11:59:51;;;;;;;;;21.75;19.00;;;;;;;;5086432;27;45517;-76
2024/01/09 12:02:18;;;;;;;;;24.00;22.75;;;;;;;;5061584;28;45415;-76
2024/01/09 12:04:44;;;;;;;;;34.25;32.25;;;;;;;;5068882;28;46749;-77
2024/01/09 12:07:11;;;;;;;;;25.25;24.25;;;;;;;;5078466;28;45354;-75
2024/01/09 12:09:37;;;;;;;;;32.25;28.75;;;;;;;;5079311;28;45531;-76
2024/01/09 12:12:02;;;;;;;;;28.00;25.50;;;;;;;;5079479;28;45470;-76
2024/01/09 12:14:27;;;;;;;;;29.00;26.50;;;;;;;;5059090;28;47633;-76
2024/01/09 12:16:53;;;;;;;;;36.50;32.25;;;;;;;;5080543;28;45223;-78
2024/01/09 12:19:19;;;;;;;;;49.00;42.00;;;;;;;;5060027;28;45118;-77
2024/01/09 12:21:44;;;;;;;;;34.75;34.25;;;;;;;;5059120;28;45348;-75
2024/01/09 12:24:10;;;;;;;;;27.75;22.75;;;;;;;;5063774;28;46161;-75
2024/01/09 12:26:36;;;;;;;;;31.25;28.25;;;;;;;;5060022;28;45343;-75
2024/01/09 12:29:03;;;;;;;;;29.50;24.00;;;;;;;;5059025;28;45571;-77
2024/01/09 12:31:29;;;;;;;;;31.00;26.50;;;;;;;;5059747;28;45318;-76
2024/01/09 12:33:54;;;;;;;;;31.25;25.25;;;;;;;;5059663;28;45225;-76
2024/01/09 12:36:20;;;;;;;;;106.00;100.67;;;;;;;;5059773;28;45462;-78
2024/01/09 12:38:45;;;;;;;;;30.25;28.00;;;;;;;;5041741;28;45356;-78
2024/01/09 12:41:10;;;;;;;;;27.00;26.00;;;;;;;;5041575;28;47220;-76
2024/01/09 12:43:37;;;;;;;;;27.50;25.00;;;;;;;;5059377;28;45474;-77
2024/01/09 12:46:03;;;;;;;;;29.25;24.25;;;;;;;;5059652;28;45268;-77
2024/01/09 12:48:29;;;;;;;;;26.25;24.25;;;;;;;;5059302;28;45462;-77
2024/01/09 12:50:58;;;;;;;;;25.50;24.50;;;;;;;;5059535;28;45371;-78
2024/01/09 12:53:23;;;;;;;;;29.75;26.50;;;;;;;;5059486;28;45343;-78
2024/01/09 12:56:00;;;;;;;;;24.75;24.00;;;;;;;;5059257;28;45259;-79
2024/01/09 12:58:26;;;;;;;;;39.25;33.75;;;;;;;;5093688;27;45256;-80
2024/01/09 13:00:51;;;;;;;;;33.25;28.00;;;;;;;;5100204;27;45263;-79
2024/01/09 13:03:16;;;;;;;;;37.50;29.75;;;;;;;;5100611;27;46075;-79
2024/01/09 13:05:41;;;;;;;;;27.75;24.00;;;;;;;;5094200;27;45311;-78
2024/01/09 13:08:06;;;;;;;;;42.50;35.50;;;;;;;;5053936;28;45508;-79
2024/01/09 13:10:32;;;;;;;;;25.25;22.25;;;;;;;;5080022;28;45187;-78
2024/01/09 13:12:57;;;;;;;;;31.75;29.25;;;;;;;;5080536;28;46285;-79
2024/01/09 13:15:22;;;;;;;;;27.50;27.50;;;;;;;;5079271;28;45213;-79
2024/01/09 13:17:47;;;;;;;;;32.25;28.75;;;;;;;;5061144;28;45225;-80
2024/01/09 13:20:12;;;;;;;;;33.25;31.00;;;;;;;;5063690;28;45308;-78
2024/01/09 13:22:38;;;;;;;;;38.00;30.25;;;;;;;;5059085;28;45997;-76
2024/01/09 13:25:06;;;;;;;;;27.25;23.00;;;;;;;;5078810;27;45209;-80
2024/01/09 13:27:32;;;;;;;;;24.75;21.00;;;;;;;;5080115;28;45382;-78
2024/01/09 13:29:57;;;;;;;;;29.75;26.75;;;;;;;;5062681;28;46240;-79
2024/01/09 13:32:22;;;;;;;;;32.50;26.00;;;;;;;;5080424;28;45318;-79
2024/01/09 13:34:47;;;;;;;;;28.50;26.00;;;;;;;;5079516;28;45350;-78
2024/01/09 13:37:13;;;;;;;;;23.50;23.50;;;;;;;;5079720;28;45379;-79
2024/01/09 13:39:38;;;;;;;;;21.50;17.00;;;;;;;;5072739;28;45248;-78
2024/01/09 13:42:03;;;;;;;;;46.75;37.25;;;;;;;;5074080;27;45571;-78
2024/01/09 13:44:31;;;;;;;;;26.75;25.75;;;;;;;;5070968;28;45367;-78
2024/01/09 13:46:58;;;;;;;;;27.75;24.75;;;;;;;;5071385;28;45346;-78
2024/01/09 13:49:24;;;;;;;;;25.75;22.00;;;;;;;;5053541;28;46292;-80
2024/01/09 13:51:51;;;;;;;;;29.00;27.00;;;;;;;;5069888;28;45393;-79
2024/01/09 13:54:16;;;;;;;;;32.75;28.50;;;;;;;;5071263;28;45495;-79
2024/01/09 13:56:41;;;;;;;;;28.00;24.75;;;;;;;;5072245;27;46661;-80
2024/01/09 13:59:07;;;;;;;;;34.50;29.75;;;;;;;;5053679;28;47472;-78
2024/01/09 14:01:32;;;;;;;;;26.50;25.25;;;;;;;;5054355;28;47094;-78
2024/01/09 14:03:57;;;;;;;;;24.00;20.00;;;;;;;;5069823;28;45562;-78
2024/01/09 14:06:25;;;;;;;;;23.50;21.25;;;;;;;;5071138;28;45470;-77